createdAt,value
2023-03-13T00:01:21.335Z,98018.28
2023-03-13T00:04:22.933Z,98045.06
2023-03-13T00:07:24.409Z,98061.56
2023-03-13T00:10:27.224Z,98050.31
2023-03-13T00:13:28.719Z,98048.59
2023-03-13T00:16:30.433Z,98052.94
2023-03-13T00:19:32.007Z,98054.69
2023-03-13T00:22:33.505Z,98035.63
2023-03-13T00:25:35.009Z,98038.22
2023-03-13T00:28:37.190Z,98030.41
2023-03-13T00:31:38.774Z,98019.16
2023-03-13T00:34:40.281Z,98017.44
2023-03-13T00:37:42.564Z,98016.56
2023-03-13T00:40:44.092Z,98017.41
2023-03-13T00:43:46.100Z,97998.34
2023-03-13T00:46:47.615Z,98006.94
2023-03-13T00:49:49.130Z,98005.28
2023-03-13T00:52:50.623Z,97995.75
2023-03-13T00:56:05.895Z,98000.13
2023-03-13T00:59:07.450Z,97990.59
2023-03-13T01:02:09.034Z,97981.94
2023-03-13T01:05:10.645Z,97966.34
2023-03-13T01:08:12.143Z,97964.66
2023-03-13T01:11:18.810Z,97952.50
2023-03-13T01:14:20.325Z,97952.47
2023-03-13T01:17:21.810Z,97941.25
2023-03-13T01:20:23.269Z,97940.34
2023-03-13T01:23:24.813Z,97938.59
2023-03-13T01:26:26.510Z,97948.94
2023-03-13T01:29:28.026Z,97960.16
2023-03-13T01:32:29.576Z,97971.41
2023-03-13T01:35:31.391Z,97967.94
2023-03-13T01:38:32.930Z,97960.00
2023-03-13T01:41:34.442Z,97942.59
2023-03-13T01:44:52.817Z,97927.59
2023-03-13T01:47:54.327Z,97922.34
2023-03-13T01:50:55.849Z,97913.72
2023-03-13T01:54:17.089Z,97898.13
2023-03-13T01:57:29.618Z,97886.91
2023-03-13T02:00:32.193Z,97872.22
2023-03-13T02:03:33.832Z,97870.44
2023-03-13T02:06:36.317Z,97860.97
2023-03-13T02:09:37.953Z,97836.63
2023-03-13T02:12:39.715Z,97829.06
2023-03-13T02:15:41.321Z,97828.25
2023-03-13T02:18:42.837Z,97824.84
2023-03-13T02:21:59.558Z,97798.00
2023-03-13T02:25:25.614Z,97786.63
2023-03-13T02:28:33.911Z,97774.44
2023-03-13T02:31:35.587Z,97756.09
2023-03-13T02:34:38.578Z,97761.09
2023-03-13T02:37:42.026Z,97740.28
2023-03-13T02:40:45.197Z,97751.56
2023-03-13T02:43:46.683Z,97743.72
2023-03-13T02:46:52.445Z,97728.94
2023-03-13T02:49:54.081Z,97726.19
2023-03-13T02:52:57.243Z,97731.06
2023-03-13T02:55:58.720Z,97740.41
2023-03-13T02:59:00.506Z,97748.84
2023-03-13T03:02:02.205Z,97761.81
2023-03-13T03:05:04.207Z,97777.28
2023-03-13T03:08:05.738Z,97772.00
2023-03-13T03:11:07.326Z,97777.97
2023-03-13T03:14:09.302Z,97804.56
2023-03-13T03:17:10.816Z,97819.50
2023-03-13T03:20:12.385Z,97818.28
2023-03-13T03:23:13.942Z,97838.28
2023-03-13T03:26:15.437Z,97853.81
2023-03-13T03:29:16.905Z,97870.25
2023-03-13T03:32:18.421Z,97858.28
2023-03-13T03:35:19.927Z,97853.06
2023-03-13T03:38:21.433Z,97845.34
2023-03-13T03:41:22.898Z,97834.94
2023-03-13T03:44:24.697Z,97837.47
2023-03-13T03:47:26.261Z,97846.78
2023-03-13T03:50:27.851Z,97852.03
2023-03-13T03:53:29.366Z,97851.09
2023-03-13T03:56:30.842Z,97840.88
2023-03-13T03:59:32.356Z,97846.16
2023-03-13T04:02:33.875Z,97840.09
2023-03-13T04:05:35.358Z,97852.44
2023-03-13T04:08:36.884Z,97844.47
2023-03-13T04:11:38.458Z,97835.53
2023-03-13T04:14:39.926Z,97839.97
2023-03-13T04:17:41.394Z,97820.72
2023-03-13T04:20:42.892Z,97804.00
2023-03-13T04:23:44.394Z,97812.53
2023-03-13T04:26:45.880Z,97809.25
2023-03-13T04:29:47.349Z,97803.03
2023-03-13T04:32:50.960Z,97809.00
2023-03-13T04:35:52.536Z,97821.97
2023-03-13T04:38:54.092Z,97828.66
2023-03-13T04:41:55.614Z,97844.13
2023-03-13T04:44:57.110Z,97830.38
2023-03-13T04:47:58.630Z,97854.47
2023-03-13T04:51:00.121Z,97855.56
2023-03-13T04:54:01.636Z,97855.00
2023-03-13T04:57:03.159Z,97848.09
2023-03-13T05:00:08.055Z,97852.88
2023-03-13T05:03:09.593Z,97845.03
2023-03-13T05:06:11.163Z,97838.78
2023-03-13T05:09:12.795Z,97856.25
2023-03-13T05:12:14.300Z,97832.00
2023-03-13T05:15:15.765Z,97826.91
2023-03-13T05:18:17.245Z,97822.47
2023-03-13T05:21:18.751Z,97826.75
2023-03-13T05:24:20.235Z,97832.09
2023-03-13T05:27:21.977Z,97798.34
2023-03-13T05:30:23.463Z,97808.06
2023-03-13T05:33:24.951Z,97790.53
2023-03-13T05:36:26.444Z,97793.06
2023-03-13T05:39:27.939Z,97778.66
2023-03-13T05:42:29.464Z,97783.66
2023-03-13T05:45:30.985Z,97804.16
2023-03-13T05:48:32.473Z,97804.38
2023-03-13T05:51:34.104Z,97794.81
2023-03-13T05:54:35.580Z,97809.66
2023-03-13T05:57:37.128Z,97799.97
2023-03-13T06:00:38.603Z,97805.28
2023-03-13T06:03:40.317Z,97814.63
2023-03-13T06:06:42.014Z,97807.06
2023-03-13T06:09:43.539Z,97805.19
2023-03-13T06:12:45.082Z,97795.34
2023-03-13T06:15:53.887Z,97818.91
2023-03-13T06:18:55.451Z,97805.06
2023-03-13T06:21:56.969Z,97807.63
2023-03-13T06:24:58.484Z,97810.22
2023-03-13T06:27:59.961Z,97812.66
2023-03-13T06:31:03.056Z,97813.28
2023-03-13T06:34:04.594Z,97815.72
2023-03-13T06:37:06.143Z,97816.94
2023-03-13T06:40:08.492Z,97818.59
2023-03-13T06:43:09.925Z,97802.97
2023-03-13T06:46:22.306Z,97814.06
2023-03-13T06:49:23.788Z,97813.94
2023-03-13T06:52:37.487Z,97812.53
2023-03-13T06:55:43.283Z,97813.41
2023-03-13T06:58:48.422Z,97811.59
2023-03-13T07:01:49.954Z,97809.09
2023-03-13T07:04:51.430Z,97809.81
2023-03-13T07:07:52.963Z,97827.25
2023-03-13T07:10:54.956Z,97818.28
2023-03-13T07:14:10.007Z,97819.94
2023-03-13T07:17:17.096Z,97814.84
2023-03-13T07:20:18.890Z,97816.25
2023-03-13T07:23:20.827Z,97812.78
2023-03-13T07:26:22.383Z,97811.97
2023-03-13T07:29:23.910Z,97819.75
2023-03-13T07:32:25.450Z,97815.28
2023-03-13T07:35:26.961Z,97813.97
2023-03-13T07:38:28.498Z,97807.22
2023-03-13T07:41:29.989Z,97796.66
2023-03-13T07:44:31.700Z,97780.75
2023-03-13T07:47:36.280Z,97768.44
2023-03-13T07:50:37.800Z,97778.69
2023-03-13T07:53:39.374Z,97780.19
2023-03-13T07:56:40.871Z,97788.97
2023-03-13T07:59:42.375Z,97778.94
2023-03-13T08:02:43.932Z,97785.72
2023-03-13T08:05:45.640Z,97793.31
2023-03-13T08:08:47.486Z,97792.13
2023-03-13T08:11:49.070Z,97789.41
2023-03-13T08:14:50.614Z,97790.31
2023-03-13T08:17:52.907Z,97785.16
2023-03-13T08:20:54.416Z,97799.31
2023-03-13T08:23:57.910Z,97810.13
2023-03-13T08:26:59.498Z,97802.78
2023-03-13T08:30:00.995Z,97811.47
2023-03-13T08:33:02.677Z,97815.59
2023-03-13T08:36:17.516Z,97793.97
2023-03-13T08:39:19.819Z,97803.78
2023-03-13T08:42:21.319Z,97816.63
2023-03-13T08:45:22.786Z,97800.91
2023-03-13T08:48:24.387Z,97803.31
2023-03-13T08:51:26.797Z,97804.72
2023-03-13T08:54:28.332Z,97797.56
2023-03-13T08:57:29.811Z,97786.00
2023-03-13T09:00:31.274Z,97796.84
2023-03-13T09:03:33.084Z,97796.84
2023-03-13T09:06:35.759Z,97783.78
2023-03-13T09:09:37.274Z,97780.84
2023-03-13T09:12:38.817Z,97776.97
2023-03-13T09:15:40.310Z,97766.72
2023-03-13T09:18:42.006Z,97757.50
2023-03-13T09:21:43.516Z,97788.00
2023-03-13T09:24:45.002Z,97788.69
2023-03-13T09:27:46.515Z,97778.91
2023-03-13T09:30:50.015Z,97774.97
2023-03-13T09:33:51.717Z,97763.78
2023-03-13T09:36:53.104Z,97770.31
2023-03-13T09:39:54.875Z,97747.88
2023-03-13T09:42:59.834Z,97748.72
2023-03-13T09:46:03.039Z,97733.22
2023-03-13T09:49:09.720Z,97721.38
2023-03-13T09:52:29.096Z,97717.03
2023-03-13T09:55:31.592Z,97710.63
2023-03-13T09:58:33.089Z,97702.88
2023-03-13T10:01:34.605Z,97692.56
2023-03-13T10:04:41.706Z,97688.88
2023-03-13T10:07:43.603Z,97684.63
2023-03-13T10:10:56.066Z,97692.69
2023-03-13T10:14:17.039Z,97668.97
2023-03-13T10:17:36.740Z,97667.47
2023-03-13T10:20:42.865Z,97661.09
2023-03-13T10:23:49.394Z,97654.59
2023-03-13T10:26:50.917Z,97641.69
2023-03-13T10:29:52.660Z,97648.66
2023-03-13T10:32:54.891Z,97644.22
2023-03-13T10:36:01.238Z,97635.59
2023-03-13T10:39:02.737Z,97618.81
2023-03-13T10:42:16.333Z,97620.50
2023-03-13T10:45:19.652Z,97622.22
2023-03-13T10:48:26.134Z,97637.13
2023-03-13T10:51:35.707Z,97624.13
2023-03-13T10:54:39.514Z,97619.09
2023-03-13T10:57:44.344Z,97609.03
2023-03-13T11:00:45.950Z,97593.41
2023-03-13T11:03:48.186Z,97585.72
2023-03-13T11:06:53.075Z,97584.97
2023-03-13T11:10:02.015Z,97573.69
2023-03-13T11:13:03.950Z,97566.59
2023-03-13T11:16:10.988Z,97560.38
2023-03-13T11:19:42.607Z,97563.34
2023-03-13T11:23:08.481Z,97543.66
2023-03-13T11:26:18.481Z,97523.25
2023-03-13T11:29:29.916Z,97520.03
2023-03-13T11:33:05.087Z,97516.94
2023-03-13T11:36:28.804Z,97509.28
2023-03-13T11:39:47.029Z,97491.22
2023-03-13T11:43:25.822Z,97486.19
2023-03-13T11:46:41.016Z,97479.34
2023-03-13T11:49:57.829Z,97485.53
2023-03-13T11:53:02.369Z,97469.72
2023-03-13T11:56:10.492Z,97461.66
2023-03-13T11:59:37.721Z,97456.91
2023-03-13T12:02:59.463Z,97461.31
2023-03-13T12:06:02.299Z,97424.13
2023-03-13T12:09:12.709Z,97415.06
2023-03-13T12:12:42.079Z,97416.50
2023-03-13T12:15:44.751Z,97416.00
2023-03-13T12:18:46.351Z,97401.88
2023-03-13T12:21:49.740Z,97397.72
2023-03-13T12:25:06.621Z,97377.28
2023-03-13T12:28:25.732Z,97369.41
2023-03-13T12:31:41.474Z,97366.31
2023-03-13T12:35:08.908Z,97354.66
2023-03-13T12:38:17.619Z,97351.31
2023-03-13T12:41:36.189Z,97331.47
2023-03-13T12:44:37.713Z,97329.00
2023-03-13T12:47:56.934Z,97316.06
2023-03-13T12:51:11.986Z,97307.56
2023-03-13T12:54:28.593Z,97293.94
2023-03-13T12:57:58.762Z,97300.63
2023-03-13T13:01:02.771Z,97286.09
2023-03-13T13:04:11.660Z,97272.16
2023-03-13T13:07:28.869Z,97278.38
2023-03-13T13:10:30.359Z,97263.72
2023-03-13T13:13:31.953Z,97246.28
2023-03-13T13:16:33.341Z,97237.41
2023-03-13T13:19:40.674Z,97232.19
2023-03-13T13:22:42.143Z,97225.22
2023-03-13T13:25:43.680Z,97217.09
2023-03-13T13:28:46.599Z,97206.78
2023-03-13T13:31:48.214Z,97216.25
2023-03-13T13:34:52.696Z,97208.91
2023-03-13T13:38:14.971Z,97204.06
2023-03-13T13:41:16.319Z,97185.72
2023-03-13T13:44:22.877Z,97191.97
2023-03-13T13:47:25.418Z,97196.88
2023-03-13T13:50:27.918Z,97190.88
2023-03-13T13:53:30.647Z,97180.09
2023-03-13T13:56:45.701Z,97171.63
2023-03-13T14:00:08.600Z,97152.91
2023-03-13T14:03:22.358Z,97150.19
2023-03-13T14:06:30.667Z,97139.47
2023-03-13T14:09:52.428Z,97121.25
2023-03-13T14:12:55.130Z,97126.22
2023-03-13T14:15:56.659Z,97112.44
2023-03-13T14:18:58.193Z,97108.00
2023-03-13T14:22:04.867Z,97105.22
2023-03-13T14:25:06.551Z,97102.28
2023-03-13T14:28:25.131Z,97089.00
2023-03-13T14:31:36.966Z,97088.41
2023-03-13T14:34:38.474Z,97093.88
2023-03-13T14:37:44.658Z,97086.75
2023-03-13T14:40:46.207Z,97077.28
2023-03-13T14:43:47.697Z,97063.47
2023-03-13T14:46:49.192Z,97047.28
2023-03-13T14:49:56.232Z,97051.47
2023-03-13T14:53:05.183Z,97031.59
2023-03-13T14:56:15.074Z,97031.13
2023-03-13T14:59:16.647Z,97023.59
2023-03-13T15:02:27.089Z,97016.66
2023-03-13T15:05:31.911Z,97006.44
2023-03-13T15:08:34.437Z,97008.81
2023-03-13T15:11:38.586Z,96994.63
2023-03-13T15:14:44.295Z,96978.75
2023-03-13T15:17:45.819Z,96967.03
2023-03-13T15:20:50.989Z,96957.19
2023-03-13T15:24:12.825Z,96957.13
2023-03-13T15:27:18.447Z,96941.91
2023-03-13T15:30:23.055Z,96920.91
2023-03-13T15:33:26.572Z,96920.69
2023-03-13T15:36:28.392Z,96900.88
2023-03-13T15:39:29.871Z,96916.22
2023-03-13T15:42:31.233Z,96891.94
2023-03-13T15:45:32.920Z,96886.94
2023-03-13T15:48:34.450Z,96861.41
2023-03-13T15:51:35.788Z,96848.94
2023-03-13T15:54:37.271Z,96827.44
2023-03-13T15:57:42.019Z,96828.00
2023-03-13T16:00:43.788Z,96835.00
2023-03-13T16:03:45.301Z,96819.47
2023-03-13T16:06:46.617Z,96806.47
2023-03-13T16:09:48.282Z,96813.91
2023-03-13T16:12:49.800Z,96818.13
2023-03-13T16:15:51.428Z,96809.31
2023-03-13T16:18:53.006Z,96795.75
2023-03-13T16:21:54.345Z,96793.00
2023-03-13T16:24:55.835Z,96788.44
2023-03-13T16:27:57.605Z,96784.91
2023-03-13T16:30:59.151Z,96785.41
2023-03-13T16:34:01.078Z,96779.66
2023-03-13T16:37:02.615Z,96781.13
2023-03-13T16:40:19.230Z,96791.84
2023-03-13T16:43:20.800Z,96764.59
2023-03-13T16:46:23.943Z,96760.22
2023-03-13T16:49:25.494Z,96772.50
2023-03-13T16:52:27.006Z,96775.97
2023-03-13T16:55:28.833Z,96770.00
2023-03-13T16:58:30.475Z,96749.81
2023-03-13T17:01:32.134Z,96736.59
2023-03-13T17:04:33.659Z,96732.34
2023-03-13T17:07:35.169Z,96742.19
2023-03-13T17:10:36.690Z,96735.19
2023-03-13T17:13:38.609Z,96727.94
2023-03-13T17:16:41.352Z,96709.44
2023-03-13T17:19:42.849Z,96709.25
2023-03-13T17:22:45.484Z,96680.06
2023-03-13T17:25:46.963Z,96662.31
2023-03-13T17:28:49.770Z,96675.84
2023-03-13T17:31:51.317Z,96655.84
2023-03-13T17:34:52.835Z,96653.47
2023-03-13T17:37:54.390Z,96632.41
2023-03-13T17:40:55.895Z,96626.03
2023-03-13T17:43:57.703Z,96594.31
2023-03-13T17:46:59.222Z,96617.94
2023-03-13T17:50:00.797Z,96663.34
2023-03-13T17:53:02.450Z,96729.84
2023-03-13T17:56:11.786Z,96826.88
2023-03-13T17:59:15.165Z,96818.44
2023-03-13T18:02:16.703Z,96671.31
2023-03-13T18:05:18.415Z,96547.56
2023-03-13T18:08:20.697Z,96618.16
2023-03-13T18:11:22.348Z,96627.53
2023-03-13T18:14:23.906Z,96631.06
2023-03-13T18:17:25.873Z,96621.56
2023-03-13T18:20:29.566Z,96573.47
2023-03-13T18:23:31.097Z,96532.47
2023-03-13T18:26:34.276Z,96517.88
2023-03-13T18:29:35.825Z,96477.84
2023-03-13T18:32:37.379Z,96463.91
2023-03-13T18:35:38.970Z,96456.81
2023-03-13T18:38:40.453Z,96458.34
2023-03-13T18:41:41.945Z,96447.69
2023-03-13T18:44:43.438Z,96439.41
2023-03-13T18:47:45.053Z,96430.44
2023-03-13T18:50:46.714Z,96414.63
2023-03-13T18:53:48.303Z,96417.25
2023-03-13T18:56:49.915Z,96437.00
2023-03-13T18:59:51.460Z,96441.88
2023-03-13T19:02:53.007Z,96474.91
2023-03-13T19:05:54.582Z,96492.44
2023-03-13T19:09:42.119Z,96542.34
2023-03-13T19:12:41.586Z,96597.94
2023-03-13T19:15:43.088Z,96647.56
2023-03-13T19:18:45.229Z,96650.16
2023-03-13T19:21:47.050Z,96677.97
2023-03-13T19:24:48.558Z,96722.34
2023-03-13T19:27:50.060Z,96724.25
2023-03-13T19:30:51.578Z,96745.44
2023-03-13T19:33:53.536Z,96800.13
2023-03-13T19:36:55.063Z,96886.16
2023-03-13T19:39:56.574Z,96905.84
2023-03-13T19:42:58.102Z,96908.97
2023-03-13T19:45:59.593Z,96890.06
2023-03-13T19:49:01.664Z,96879.41
2023-03-13T19:52:03.278Z,96862.97
2023-03-13T19:55:05.540Z,96861.72
2023-03-13T19:58:07.158Z,96869.09
2023-03-13T20:01:17.191Z,96864.25
2023-03-13T20:04:19.341Z,96879.72
2023-03-13T20:07:20.865Z,96894.09
2023-03-13T20:10:22.470Z,96879.25
2023-03-13T20:13:23.978Z,96876.56
2023-03-13T20:16:27.811Z,96900.09
2023-03-13T20:19:29.699Z,96888.31
2023-03-13T20:22:31.238Z,96818.53
2023-03-13T20:25:32.755Z,96803.06
2023-03-13T20:28:34.655Z,96783.41
2023-03-13T20:31:36.213Z,96779.25
2023-03-13T20:34:37.756Z,96802.69
2023-03-13T20:37:39.343Z,96810.16
2023-03-13T20:40:40.848Z,96799.88
2023-03-13T20:43:42.520Z,96797.81
2023-03-13T20:46:44.067Z,96799.84
2023-03-13T20:49:45.598Z,96796.47
2023-03-13T20:52:47.131Z,96787.72
2023-03-13T20:55:48.892Z,96776.53
2023-03-13T20:58:50.403Z,96783.13
2023-03-13T21:01:51.936Z,96788.34
2023-03-13T21:04:53.513Z,96823.88
2023-03-13T21:07:55.005Z,96840.06
2023-03-13T21:10:57.502Z,96817.44
2023-03-13T21:13:59.101Z,96797.22
2023-03-13T21:17:00.619Z,96758.41
2023-03-13T21:20:02.146Z,96782.19
2023-03-13T21:23:03.624Z,96802.25
2023-03-13T21:26:05.376Z,96790.38
2023-03-13T21:29:09.197Z,96758.25
2023-03-13T21:32:11.289Z,96739.88
2023-03-13T21:35:12.841Z,96757.56
2023-03-13T21:38:14.390Z,96761.38
2023-03-13T21:41:17.552Z,96730.78
2023-03-13T21:44:19.635Z,96721.13
2023-03-13T21:47:24.543Z,96701.84
2023-03-13T21:50:26.188Z,96671.28
2023-03-13T21:53:27.678Z,96674.75
2023-03-13T21:56:29.192Z,96693.41
2023-03-13T21:59:31.869Z,96702.56
2023-03-13T22:02:34.016Z,96698.69
2023-03-13T22:05:40.694Z,96697.56
2023-03-13T22:08:42.672Z,96704.50
2023-03-13T22:11:44.142Z,96693.25
2023-03-13T22:14:45.666Z,96705.09
2023-03-13T22:17:47.205Z,96715.88
2023-03-13T22:20:48.905Z,96708.06
2023-03-13T22:23:50.518Z,96703.59
2023-03-13T22:26:52.016Z,96708.06
2023-03-13T22:29:53.577Z,96712.19
2023-03-13T22:32:55.096Z,96714.78
2023-03-13T22:35:56.722Z,96727.75
2023-03-13T22:38:58.239Z,96697.25
2023-03-13T22:42:00.083Z,96649.25
2023-03-13T22:45:01.549Z,96612.09
2023-03-13T22:48:06.207Z,96620.59
2023-03-13T22:51:11.954Z,96664.81
2023-03-13T22:54:13.424Z,96692.63
2023-03-13T22:57:15.120Z,96690.50
2023-03-13T23:00:16.938Z,96706.56
2023-03-13T23:03:18.776Z,96703.19
2023-03-13T23:06:24.410Z,96715.28
2023-03-13T23:09:25.923Z,96704.63
2023-03-13T23:12:30.648Z,96711.78
2023-03-13T23:15:43.097Z,96686.47
2023-03-13T23:18:53.764Z,96683.72
2023-03-13T23:21:55.380Z,96679.34
2023-03-13T23:24:57.114Z,96680.19
2023-03-13T23:27:58.650Z,96675.13
2023-03-13T23:31:00.848Z,96694.16
2023-03-13T23:34:02.333Z,96699.50
2023-03-13T23:37:03.852Z,96710.06
2023-03-13T23:40:08.238Z,96723.97
2023-03-13T23:43:09.772Z,96728.38
2023-03-13T23:46:18.861Z,96723.81
2023-03-13T23:49:20.352Z,96711.53
2023-03-13T23:52:22.183Z,96715.78
2023-03-13T23:55:23.689Z,96723.38
2023-03-13T23:58:25.550Z,96705.03
